sensor_id;sensor_type;location;lat;lon;timestamp;temperature;humidity
52245;DHT22;55759;51.586;-1.758;2024-03-02T00:01:42;3.00;91.10
52245;DHT22;55759;51.586;-1.758;2024-03-02T00:04:08;2.90;91.50
52245;DHT22;55759;51.586;-1.758;2024-03-02T00:06:33;3.00;91.90
52245;DHT22;55759;51.586;-1.758;2024-03-02T00:08:59;3.00;92.00
52245;DHT22;55759;51.586;-1.758;2024-03-02T00:11:25;3.00;92.10
52245;DHT22;55759;51.586;-1.758;2024-03-02T00:13:52;3.00;92.20
52245;DHT22;55759;51.586;-1.758;2024-03-02T00:16:18;3.10;92.30
52245;DHT22;55759;51.586;-1.758;2024-03-02T00:18:43;3.00;92.20
52245;DHT22;55759;51.586;-1.758;2024-03-02T00:21:09;2.90;92.10
52245;DHT22;55759;51.586;-1.758;2024-03-02T00:23:35;2.90;92.10
52245;DHT22;55759;51.586;-1.758;2024-03-02T00:26:01;2.80;92.10
52245;DHT22;55759;51.586;-1.758;2024-03-02T00:28:27;2.70;92.10
52245;DHT22;55759;51.586;-1.758;2024-03-02T00:31:01;2.70;92.10
52245;DHT22;55759;51.586;-1.758;2024-03-02T00:33:28;2.70;92.30
52245;DHT22;55759;51.586;-1.758;2024-03-02T00:35:55;2.70;92.30
52245;DHT22;55759;51.586;-1.758;2024-03-02T00:38:21;2.70;92.30
52245;DHT22;55759;51.586;-1.758;2024-03-02T00:40:47;2.70;92.30
52245;DHT22;55759;51.586;-1.758;2024-03-02T00:45:48;2.80;92.60
52245;DHT22;55759;51.586;-1.758;2024-03-02T00:48:14;2.80;92.60
52245;DHT22;55759;51.586;-1.758;2024-03-02T00:50:40;2.80;92.50
52245;DHT22;55759;51.586;-1.758;2024-03-02T00:53:08;2.80;92.50
52245;DHT22;55759;51.586;-1.758;2024-03-02T00:55:36;2.70;92.40
52245;DHT22;55759;51.586;-1.758;2024-03-02T00:58:02;2.60;92.40
52245;DHT22;55759;51.586;-1.758;2024-03-02T01:00:28;2.70;92.50
52245;DHT22;55759;51.586;-1.758;2024-03-02T01:02:53;2.70;92.50
52245;DHT22;55759;51.586;-1.758;2024-03-02T01:05:20;2.60;92.50
52245;DHT22;55759;51.586;-1.758;2024-03-02T01:07:45;2.60;92.50
52245;DHT22;55759;51.586;-1.758;2024-03-02T01:10:11;2.60;92.60
52245;DHT22;55759;51.586;-1.758;2024-03-02T01:12:37;2.60;92.60
52245;DHT22;55759;51.586;-1.758;2024-03-02T01:15:02;2.60;92.70
52245;DHT22;55759;51.586;-1.758;2024-03-02T01:17:31;2.70;92.80
52245;DHT22;55759;51.586;-1.758;2024-03-02T01:19:56;2.80;92.90
52245;DHT22;55759;51.586;-1.758;2024-03-02T01:22:22;2.90;93.00
52245;DHT22;55759;51.586;-1.758;2024-03-02T01:24:50;2.90;93.00
52245;DHT22;55759;51.586;-1.758;2024-03-02T01:27:16;2.90;93.00
52245;DHT22;55759;51.586;-1.758;2024-03-02T01:29:42;2.90;92.90
52245;DHT22;55759;51.586;-1.758;2024-03-02T01:32:07;2.80;92.80
52245;DHT22;55759;51.586;-1.758;2024-03-02T01:34:33;2.80;92.90
52245;DHT22;55759;51.586;-1.758;2024-03-02T01:36:58;2.80;92.90
52245;DHT22;55759;51.586;-1.758;2024-03-02T01:39:24;2.90;93.00
52245;DHT22;55759;51.586;-1.758;2024-03-02T01:41:49;2.90;93.10
52245;DHT22;55759;51.586;-1.758;2024-03-02T01:44:15;3.00;93.20
52245;DHT22;55759;51.586;-1.758;2024-03-02T01:46:41;3.10;93.20
52245;DHT22;55759;51.586;-1.758;2024-03-02T01:49:06;3.10;93.20
52245;DHT22;55759;51.586;-1.758;2024-03-02T01:51:32;3.20;93.20
52245;DHT22;55759;51.586;-1.758;2024-03-02T01:53:57;3.20;93.20
52245;DHT22;55759;51.586;-1.758;2024-03-02T01:56:23;3.20;93.20
52245;DHT22;55759;51.586;-1.758;2024-03-02T01:58:49;3.20;93.20
52245;DHT22;55759;51.586;-1.758;2024-03-02T02:01:15;3.20;93.20
52245;DHT22;55759;51.586;-1.758;2024-03-02T02:03:42;3.20;93.20
52245;DHT22;55759;51.586;-1.758;2024-03-02T02:06:09;3.20;93.20
52245;DHT22;55759;51.586;-1.758;2024-03-02T02:08:36;3.30;93.20
52245;DHT22;55759;51.586;-1.758;2024-03-02T02:11:02;3.20;93.20
52245;DHT22;55759;51.586;-1.758;2024-03-02T02:13:27;3.20;93.20
52245;DHT22;55759;51.586;-1.758;2024-03-02T02:15:53;3.20;93.30
52245;DHT22;55759;51.586;-1.758;2024-03-02T02:18:19;3.30;93.30
52245;DHT22;55759;51.586;-1.758;2024-03-02T02:20:44;3.30;93.40
52245;DHT22;55759;51.586;-1.758;2024-03-02T02:23:10;3.40;93.40
52245;DHT22;55759;51.586;-1.758;2024-03-02T02:25:35;3.50;93.40
52245;DHT22;55759;51.586;-1.758;2024-03-02T02:28:01;3.50;93.40
52245;DHT22;55759;51.586;-1.758;2024-03-02T02:30:29;3.60;93.40
52245;DHT22;55759;51.586;-1.758;2024-03-02T02:32:55;3.60;93.40
52245;DHT22;55759;51.586;-1.758;2024-03-02T02:35:21;3.70;93.40
52245;DHT22;55759;51.586;-1.758;2024-03-02T02:37:47;3.70;93.40
52245;DHT22;55759;51.586;-1.758;2024-03-02T02:40:13;3.80;93.50
52245;DHT22;55759;51.586;-1.758;2024-03-02T02:42:39;3.80;93.40
52245;DHT22;55759;51.586;-1.758;2024-03-02T02:45:05;3.80;93.50
52245;DHT22;55759;51.586;-1.758;2024-03-02T02:47:30;3.90;93.40
52245;DHT22;55759;51.586;-1.758;2024-03-02T02:49:56;3.90;93.50
52245;DHT22;55759;51.586;-1.758;2024-03-02T02:52:22;3.90;93.40
52245;DHT22;55759;51.586;-1.758;2024-03-02T02:54:47;3.90;93.40
52245;DHT22;55759;51.586;-1.758;2024-03-02T02:57:13;3.90;93.30
52245;DHT22;55759;51.586;-1.758;2024-03-02T02:59:38;4.00;93.30
52245;DHT22;55759;51.586;-1.758;2024-03-02T03:02:04;4.00;93.30
52245;DHT22;55759;51.586;-1.758;2024-03-02T03:04:30;4.00;93.30
52245;DHT22;55759;51.586;-1.758;2024-03-02T03:06:56;3.90;93.20
52245;DHT22;55759;51.586;-1.758;2024-03-02T03:09:24;3.80;93.00
52245;DHT22;55759;51.586;-1.758;2024-03-02T03:11:53;3.60;92.70
52245;DHT22;55759;51.586;-1.758;2024-03-02T03:14:18;3.60;92.80
52245;DHT22;55759;51.586;-1.758;2024-03-02T03:16:45;3.60;92.80
52245;DHT22;55759;51.586;-1.758;2024-03-02T03:19:11;3.50;92.70
52245;DHT22;55759;51.586;-1.758;2024-03-02T03:21:36;3.30;92.40
52245;DHT22;55759;51.586;-1.758;2024-03-02T03:24:02;3.30;92.60
52245;DHT22;55759;51.586;-1.758;2024-03-02T03:26:28;3.10;92.40
52245;DHT22;55759;51.586;-1.758;2024-03-02T03:28:54;2.90;92.10
52245;DHT22;55759;51.586;-1.758;2024-03-02T03:31:19;2.70;92.00
52245;DHT22;55759;51.586;-1.758;2024-03-02T03:33:45;2.70;92.40
52245;DHT22;55759;51.586;-1.758;2024-03-02T03:36:10;2.80;92.70
52245;DHT22;55759;51.586;-1.758;2024-03-02T03:38:36;2.90;92.90
52245;DHT22;55759;51.586;-1.758;2024-03-02T03:41:01;3.00;93.00
52245;DHT22;55759;51.586;-1.758;2024-03-02T03:43:27;3.00;93.10
52245;DHT22;55759;51.586;-1.758;2024-03-02T03:45:52;3.00;93.10
52245;DHT22;55759;51.586;-1.758;2024-03-02T03:48:18;2.90;93.00
52245;DHT22;55759;51.586;-1.758;2024-03-02T03:50:44;2.90;93.00
52245;DHT22;55759;51.586;-1.758;2024-03-02T03:53:09;2.80;93.00
52245;DHT22;55759;51.586;-1.758;2024-03-02T03:55:35;2.80;93.10
52245;DHT22;55759;51.586;-1.758;2024-03-02T03:58:00;2.70;93.00
52245;DHT22;55759;51.586;-1.758;2024-03-02T04:00:26;2.70;93.10
52245;DHT22;55759;51.586;-1.758;2024-03-02T04:02:51;2.70;93.10
52245;DHT22;55759;51.586;-1.758;2024-03-02T04:05:17;2.70;93.20
52245;DHT22;55759;51.586;-1.758;2024-03-02T04:07:43;2.80;93.20
52245;DHT22;55759;51.586;-1.758;2024-03-02T04:10:11;2.80;93.30
52245;DHT22;55759;51.586;-1.758;2024-03-02T04:12:37;2.90;93.30
52245;DHT22;55759;51.586;-1.758;2024-03-02T04:15:04;2.90;93.30
52245;DHT22;55759;51.586;-1.758;2024-03-02T04:17:31;2.90;93.30
52245;DHT22;55759;51.586;-1.758;2024-03-02T04:19:56;2.90;93.40
52245;DHT22;55759;51.586;-1.758;2024-03-02T04:22:22;3.00;93.40
52245;DHT22;55759;51.586;-1.758;2024-03-02T04:24:47;3.00;93.40
52245;DHT22;55759;51.586;-1.758;2024-03-02T04:27:13;3.10;93.40
52245;DHT22;55759;51.586;-1.758;2024-03-02T04:29:38;3.10;93.40
52245;DHT22;55759;51.586;-1.758;2024-03-02T04:32:04;3.10;93.40
52245;DHT22;55759;51.586;-1.758;2024-03-02T04:34:29;3.10;93.40
52245;DHT22;55759;51.586;-1.758;2024-03-02T04:36:58;3.10;93.40
52245;DHT22;55759;51.586;-1.758;2024-03-02T04:39:23;3.20;93.30
52245;DHT22;55759;51.586;-1.758;2024-03-02T04:41:50;3.20;93.30
52245;DHT22;55759;51.586;-1.758;2024-03-02T04:44:15;3.20;93.30
52245;DHT22;55759;51.586;-1.758;2024-03-02T04:46:41;3.20;93.30
52245;DHT22;55759;51.586;-1.758;2024-03-02T04:49:06;3.20;93.30
52245;DHT22;55759;51.586;-1.758;2024-03-02T04:51:32;3.20;93.30
52245;DHT22;55759;51.586;-1.758;2024-03-02T04:53:58;3.20;93.30
52245;DHT22;55759;51.586;-1.758;2024-03-02T04:56:24;3.20;93.30
52245;DHT22;55759;51.586;-1.758;2024-03-02T04:59:25;3.20;93.30
52245;DHT22;55759;51.586;-1.758;2024-03-02T05:01:50;3.20;93.30
52245;DHT22;55759;51.586;-1.758;2024-03-02T05:09:26;3.60;93.50
52245;DHT22;55759;51.586;-1.758;2024-03-02T05:11:52;3.60;93.50
52245;DHT22;55759;51.586;-1.758;2024-03-02T05:14:44;3.80;93.60
52245;DHT22;55759;51.586;-1.758;2024-03-02T05:17:09;3.80;93.50
52245;DHT22;55759;51.586;-1.758;2024-03-02T05:19:35;3.80;93.50
52245;DHT22;55759;51.586;-1.758;2024-03-02T05:22:00;3.90;93.50
52245;DHT22;55759;51.586;-1.758;2024-03-02T05:24:26;3.90;93.40
52245;DHT22;55759;51.586;-1.758;2024-03-02T05:26:53;4.00;93.40
52245;DHT22;55759;51.586;-1.758;2024-03-02T05:29:18;4.00;93.40
52245;DHT22;55759;51.586;-1.758;2024-03-02T05:31:44;4.00;93.50
52245;DHT22;55759;51.586;-1.758;2024-03-02T05:34:10;4.10;93.40
52245;DHT22;55759;51.586;-1.758;2024-03-02T05:36:35;4.10;93.50
52245;DHT22;55759;51.586;-1.758;2024-03-02T05:39:01;4.20;93.50
52245;DHT22;55759;51.586;-1.758;2024-03-02T05:41:27;4.20;93.40
52245;DHT22;55759;51.586;-1.758;2024-03-02T05:43:53;4.20;93.40
52245;DHT22;55759;51.586;-1.758;2024-03-02T05:46:18;4.20;93.40
52245;DHT22;55759;51.586;-1.758;2024-03-02T05:48:44;4.30;93.30
52245;DHT22;55759;51.586;-1.758;2024-03-02T05:51:09;4.30;93.30
52245;DHT22;55759;51.586;-1.758;2024-03-02T05:53:35;4.30;93.30
52245;DHT22;55759;51.586;-1.758;2024-03-02T05:56:03;4.30;93.20
52245;DHT22;55759;51.586;-1.758;2024-03-02T05:58:30;4.40;93.20
52245;DHT22;55759;51.586;-1.758;2024-03-02T06:01:14;4.40;93.20
52245;DHT22;55759;51.586;-1.758;2024-03-02T06:03:39;4.40;93.10
52245;DHT22;55759;51.586;-1.758;2024-03-02T06:06:05;4.40;93.10
52245;DHT22;55759;51.586;-1.758;2024-03-02T06:08:31;4.30;93.00
52245;DHT22;55759;51.586;-1.758;2024-03-02T06:10:56;4.20;92.90
52245;DHT22;55759;51.586;-1.758;2024-03-02T06:13:22;4.10;92.90
52245;DHT22;55759;51.586;-1.758;2024-03-02T06:15:48;4.10;92.90
52245;DHT22;55759;51.586;-1.758;2024-03-02T06:18:14;4.10;93.00
52245;DHT22;55759;51.586;-1.758;2024-03-02T06:20:39;4.10;93.00
52245;DHT22;55759;51.586;-1.758;2024-03-02T06:23:05;4.20;93.00
52245;DHT22;55759;51.586;-1.758;2024-03-02T06:25:30;4.20;93.10
52245;DHT22;55759;51.586;-1.758;2024-03-02T06:27:56;4.30;93.10
52245;DHT22;55759;51.586;-1.758;2024-03-02T06:30:21;4.40;93.10
52245;DHT22;55759;51.586;-1.758;2024-03-02T06:32:47;4.40;93.10
52245;DHT22;55759;51.586;-1.758;2024-03-02T06:35:12;4.40;93.00
52245;DHT22;55759;51.586;-1.758;2024-03-02T06:37:38;4.40;93.00
52245;DHT22;55759;51.586;-1.758;2024-03-02T06:40:05;4.40;92.80
52245;DHT22;55759;51.586;-1.758;2024-03-02T06:42:33;4.30;92.70
52245;DHT22;55759;51.586;-1.758;2024-03-02T06:44:59;4.30;92.70
52245;DHT22;55759;51.586;-1.758;2024-03-02T06:47:24;4.30;92.60
52245;DHT22;55759;51.586;-1.758;2024-03-02T06:49:50;4.20;92.60
52245;DHT22;55759;51.586;-1.758;2024-03-02T06:52:16;4.20;92.50
52245;DHT22;55759;51.586;-1.758;2024-03-02T06:54:41;4.00;92.40
52245;DHT22;55759;51.586;-1.758;2024-03-02T06:57:07;3.90;92.30
52245;DHT22;55759;51.586;-1.758;2024-03-02T06:59:32;3.80;92.30
52245;DHT22;55759;51.586;-1.758;2024-03-02T07:01:59;3.60;92.10
52245;DHT22;55759;51.586;-1.758;2024-03-02T07:04:24;3.50;92.00
52245;DHT22;55759;51.586;-1.758;2024-03-02T07:06:50;3.30;91.90
52245;DHT22;55759;51.586;-1.758;2024-03-02T07:09:16;3.20;91.80
52245;DHT22;55759;51.586;-1.758;2024-03-02T07:11:42;2.90;91.40
52245;DHT22;55759;51.586;-1.758;2024-03-02T07:14:08;2.70;91.40
52245;DHT22;55759;51.586;-1.758;2024-03-02T07:16:33;2.60;91.50
52245;DHT22;55759;51.586;-1.758;2024-03-02T07:19:00;2.40;91.50
52245;DHT22;55759;51.586;-1.758;2024-03-02T07:21:27;2.40;91.70
52245;DHT22;55759;51.586;-1.758;2024-03-02T07:23:53;2.40;91.90
52245;DHT22;55759;51.586;-1.758;2024-03-02T07:26:18;2.40;92.10
52245;DHT22;55759;51.586;-1.758;2024-03-02T07:28:47;2.40;92.10
52245;DHT22;55759;51.586;-1.758;2024-03-02T07:31:14;2.40;92.20
52245;DHT22;55759;51.586;-1.758;2024-03-02T07:33:44;2.40;92.10
52245;DHT22;55759;51.586;-1.758;2024-03-02T07:36:10;2.40;92.20
52245;DHT22;55759;51.586;-1.758;2024-03-02T07:38:35;2.40;92.20
52245;DHT22;55759;51.586;-1.758;2024-03-02T07:41:01;2.40;92.40
52245;DHT22;55759;51.586;-1.758;2024-03-02T07:43:30;2.40;92.40
52245;DHT22;55759;51.586;-1.758;2024-03-02T07:45:57;2.50;92.40
52245;DHT22;55759;51.586;-1.758;2024-03-02T07:48:22;2.60;92.50
52245;DHT22;55759;51.586;-1.758;2024-03-02T07:50:51;2.60;92.50
52245;DHT22;55759;51.586;-1.758;2024-03-02T07:53:17;2.70;92.60
52245;DHT22;55759;51.586;-1.758;2024-03-02T07:55:42;2.70;92.60
52245;DHT22;55759;51.586;-1.758;2024-03-02T07:58:08;2.70;92.50
52245;DHT22;55759;51.586;-1.758;2024-03-02T08:00:34;2.70;92.50
52245;DHT22;55759;51.586;-1.758;2024-03-02T08:03:00;2.70;92.40
52245;DHT22;55759;51.586;-1.758;2024-03-02T08:05:26;2.80;92.50
52245;DHT22;55759;51.586;-1.758;2024-03-02T08:07:52;2.80;92.50
52245;DHT22;55759;51.586;-1.758;2024-03-02T08:10:18;2.80;92.60
52245;DHT22;55759;51.586;-1.758;2024-03-02T08:12:43;2.80;92.60
52245;DHT22;55759;51.586;-1.758;2024-03-02T08:15:12;2.80;92.60
52245;DHT22;55759;51.586;-1.758;2024-03-02T08:17:38;2.90;92.60
52245;DHT22;55759;51.586;-1.758;2024-03-02T08:20:06;2.90;92.40
52245;DHT22;55759;51.586;-1.758;2024-03-02T08:22:32;2.90;92.30
52245;DHT22;55759;51.586;-1.758;2024-03-02T08:24:57;2.90;92.20
52245;DHT22;55759;51.586;-1.758;2024-03-02T08:27:24;3.00;92.10
52245;DHT22;55759;51.586;-1.758;2024-03-02T08:29:49;3.00;92.10
52245;DHT22;55759;51.586;-1.758;2024-03-02T08:32:15;3.10;92.00
52245;DHT22;55759;51.586;-1.758;2024-03-02T08:34:42;3.10;91.90
52245;DHT22;55759;51.586;-1.758;2024-03-02T08:37:08;3.20;91.90
52245;DHT22;55759;51.586;-1.758;2024-03-02T08:39:33;3.30;91.70
52245;DHT22;55759;51.586;-1.758;2024-03-02T08:41:59;3.30;91.70
52245;DHT22;55759;51.586;-1.758;2024-03-02T08:44:24;3.50;91.70
52245;DHT22;55759;51.586;-1.758;2024-03-02T08:46:50;3.60;91.60
52245;DHT22;55759;51.586;-1.758;2024-03-02T08:49:19;3.60;91.50
52245;DHT22;55759;51.586;-1.758;2024-03-02T08:51:44;3.60;91.10
52245;DHT22;55759;51.586;-1.758;2024-03-02T08:54:10;3.60;90.80
52245;DHT22;55759;51.586;-1.758;2024-03-02T08:56:35;3.50;90.60
52245;DHT22;55759;51.586;-1.758;2024-03-02T08:59:01;3.40;90.70
52245;DHT22;55759;51.586;-1.758;2024-03-02T09:01:26;3.50;90.80
52245;DHT22;55759;51.586;-1.758;2024-03-02T09:03:52;3.60;90.70
52245;DHT22;55759;51.586;-1.758;2024-03-02T09:06:18;3.80;90.80
52245;DHT22;55759;51.586;-1.758;2024-03-02T09:08:45;3.90;90.50
52245;DHT22;55759;51.586;-1.758;2024-03-02T09:11:11;4.00;90.20
52245;DHT22;55759;51.586;-1.758;2024-03-02T09:13:37;4.10;90.20
52245;DHT22;55759;51.586;-1.758;2024-03-02T09:16:03;4.20;89.90
52245;DHT22;55759;51.586;-1.758;2024-03-02T09:18:29;4.40;89.40
52245;DHT22;55759;51.586;-1.758;2024-03-02T09:20:54;4.50;89.40
52245;DHT22;55759;51.586;-1.758;2024-03-02T09:23:20;4.60;88.60
52245;DHT22;55759;51.586;-1.758;2024-03-02T09:25:46;4.70;88.70
52245;DHT22;55759;51.586;-1.758;2024-03-02T09:28:12;4.80;88.60
52245;DHT22;55759;51.586;-1.758;2024-03-02T09:30:37;4.80;87.70
52245;DHT22;55759;51.586;-1.758;2024-03-02T09:33:03;4.80;87.50
52245;DHT22;55759;51.586;-1.758;2024-03-02T09:35:29;4.90;87.00
52245;DHT22;55759;51.586;-1.758;2024-03-02T09:37:55;5.00;86.90
52245;DHT22;55759;51.586;-1.758;2024-03-02T09:40:23;4.90;86.90
52245;DHT22;55759;51.586;-1.758;2024-03-02T09:42:49;5.00;87.30
52245;DHT22;55759;51.586;-1.758;2024-03-02T09:45:22;5.10;87.30
52245;DHT22;55759;51.586;-1.758;2024-03-02T09:47:49;5.20;87.30
52245;DHT22;55759;51.586;-1.758;2024-03-02T09:50:14;5.30;86.70
52245;DHT22;55759;51.586;-1.758;2024-03-02T09:52:41;5.20;86.20
52245;DHT22;55759;51.586;-1.758;2024-03-02T09:55:07;5.20;85.90
52245;DHT22;55759;51.586;-1.758;2024-03-02T09:57:33;5.30;86.20
52245;DHT22;55759;51.586;-1.758;2024-03-02T09:59:59;5.20;86.20
52245;DHT22;55759;51.586;-1.758;2024-03-02T10:02:24;5.10;86.20
52245;DHT22;55759;51.586;-1.758;2024-03-02T10:04:50;5.00;86.40
52245;DHT22;55759;51.586;-1.758;2024-03-02T10:07:16;4.90;86.90
52245;DHT22;55759;51.586;-1.758;2024-03-02T10:09:43;5.00;87.50
52245;DHT22;55759;51.586;-1.758;2024-03-02T10:12:09;5.10;87.30
52245;DHT22;55759;51.586;-1.758;2024-03-02T10:14:35;5.10;87.40
52245;DHT22;55759;51.586;-1.758;2024-03-02T10:17:05;5.20;87.30
52245;DHT22;55759;51.586;-1.758;2024-03-02T10:19:31;5.30;86.80
52245;DHT22;55759;51.586;-1.758;2024-03-02T10:22:03;5.40;86.80
52245;DHT22;55759;51.586;-1.758;2024-03-02T10:24:34;5.40;86.80
52245;DHT22;55759;51.586;-1.758;2024-03-02T10:27:01;5.40;86.60
52245;DHT22;55759;51.586;-1.758;2024-03-02T10:29:29;5.60;86.80
52245;DHT22;55759;51.586;-1.758;2024-03-02T10:31:54;5.90;86.80
52245;DHT22;55759;51.586;-1.758;2024-03-02T10:34:21;6.20;86.50
52245;DHT22;55759;51.586;-1.758;2024-03-02T10:36:47;6.40;85.50
52245;DHT22;55759;51.586;-1.758;2024-03-02T10:39:13;6.50;84.90
52245;DHT22;55759;51.586;-1.758;2024-03-02T10:41:39;6.50;85.10
52245;DHT22;55759;51.586;-1.758;2024-03-02T10:44:06;6.50;85.30
52245;DHT22;55759;51.586;-1.758;2024-03-02T10:46:32;6.20;84.90
52245;DHT22;55759;51.586;-1.758;2024-03-02T10:48:59;6.10;85.10
52245;DHT22;55759;51.586;-1.758;2024-03-02T10:51:25;6.00;85.20
52245;DHT22;55759;51.586;-1.758;2024-03-02T10:53:51;6.10;85.50
52245;DHT22;55759;51.586;-1.758;2024-03-02T10:56:21;6.20;84.90
52245;DHT22;55759;51.586;-1.758;2024-03-02T10:58:49;6.30;84.60
52245;DHT22;55759;51.586;-1.758;2024-03-02T11:01:16;6.50;84.80
52245;DHT22;55759;51.586;-1.758;2024-03-02T11:03:42;6.60;84.00
52245;DHT22;55759;51.586;-1.758;2024-03-02T11:06:08;6.50;83.80
52245;DHT22;55759;51.586;-1.758;2024-03-02T11:08:36;6.50;83.60
52245;DHT22;55759;51.586;-1.758;2024-03-02T11:11:12;6.50;83.10
52245;DHT22;55759;51.586;-1.758;2024-03-02T11:13:40;6.30;83.20
52245;DHT22;55759;51.586;-1.758;2024-03-02T11:16:09;6.20;84.00
52245;DHT22;55759;51.586;-1.758;2024-03-02T11:18:40;6.20;84.30
52245;DHT22;55759;51.586;-1.758;2024-03-02T11:21:06;6.50;85.10
52245;DHT22;55759;51.586;-1.758;2024-03-02T11:23:44;6.90;84.00
52245;DHT22;55759;51.586;-1.758;2024-03-02T11:26:21;7.10;83.20
52245;DHT22;55759;51.586;-1.758;2024-03-02T11:28:49;7.40;82.80
52245;DHT22;55759;51.586;-1.758;2024-03-02T11:31:14;7.50;81.40
52245;DHT22;55759;51.586;-1.758;2024-03-02T11:33:40;7.70;80.80
52245;DHT22;55759;51.586;-1.758;2024-03-02T11:36:06;7.90;79.60
52245;DHT22;55759;51.586;-1.758;2024-03-02T11:38:33;8.00;79.50
52245;DHT22;55759;51.586;-1.758;2024-03-02T11:41:03;8.10;79.20
52245;DHT22;55759;51.586;-1.758;2024-03-02T11:43:32;8.10;79.30
52245;DHT22;55759;51.586;-1.758;2024-03-02T11:45:59;8.10;78.60
52245;DHT22;55759;51.586;-1.758;2024-03-02T11:48:25;8.00;78.90
52245;DHT22;55759;51.586;-1.758;2024-03-02T11:50:51;8.20;78.00
52245;DHT22;55759;51.586;-1.758;2024-03-02T11:53:17;8.20;76.60
52245;DHT22;55759;51.586;-1.758;2024-03-02T11:55:43;8.40;77.80
52245;DHT22;55759;51.586;-1.758;2024-03-02T11:58:12;8.50;77.10
52245;DHT22;55759;51.586;-1.758;2024-03-02T12:00:37;8.40;77.10
52245;DHT22;55759;51.586;-1.758;2024-03-02T12:03:04;8.40;77.90
52245;DHT22;55759;51.586;-1.758;2024-03-02T12:05:30;8.60;78.30
52245;DHT22;55759;51.586;-1.758;2024-03-02T12:07:59;9.00;77.30
52245;DHT22;55759;51.586;-1.758;2024-03-02T12:10:25;8.90;74.60
52245;DHT22;55759;51.586;-1.758;2024-03-02T12:13:00;8.70;74.40
52245;DHT22;55759;51.586;-1.758;2024-03-02T12:15:27;8.60;73.90
52245;DHT22;55759;51.586;-1.758;2024-03-02T12:18:00;8.10;74.00
52245;DHT22;55759;51.586;-1.758;2024-03-02T12:20:26;7.90;74.80
52245;DHT22;55759;51.586;-1.758;2024-03-02T12:22:53;7.80;75.30
52245;DHT22;55759;51.586;-1.758;2024-03-02T12:25:19;7.70;75.90
52245;DHT22;55759;51.586;-1.758;2024-03-02T12:27:45;7.70;76.10
52245;DHT22;55759;51.586;-1.758;2024-03-02T12:30:11;8.20;76.70
52245;DHT22;55759;51.586;-1.758;2024-03-02T12:32:37;8.50;75.80
52245;DHT22;55759;51.586;-1.758;2024-03-02T12:35:04;8.60;73.50
52245;DHT22;55759;51.586;-1.758;2024-03-02T12:37:30;8.80;73.80
52245;DHT22;55759;51.586;-1.758;2024-03-02T12:39:56;9.10;71.70
52245;DHT22;55759;51.586;-1.758;2024-03-02T12:42:23;9.10;71.00
52245;DHT22;55759;51.586;-1.758;2024-03-02T12:44:49;9.10;70.60
52245;DHT22;55759;51.586;-1.758;2024-03-02T12:47:14;9.10;71.00
52245;DHT22;55759;51.586;-1.758;2024-03-02T12:49:40;8.90;71.50
52245;DHT22;55759;51.586;-1.758;2024-03-02T12:52:06;8.80;71.70
52245;DHT22;55759;51.586;-1.758;2024-03-02T12:54:31;8.80;72.00
52245;DHT22;55759;51.586;-1.758;2024-03-02T12:56:58;9.40;71.30
52245;DHT22;55759;51.586;-1.758;2024-03-02T12:59:24;9.60;69.00
52245;DHT22;55759;51.586;-1.758;2024-03-02T13:01:52;9.40;68.70
52245;DHT22;55759;51.586;-1.758;2024-03-02T13:04:21;9.00;69.90
52245;DHT22;55759;51.586;-1.758;2024-03-02T13:06:47;8.50;71.80
52245;DHT22;55759;51.586;-1.758;2024-03-02T13:09:12;8.10;72.70
52245;DHT22;55759;51.586;-1.758;2024-03-02T13:11:40;7.80;73.50
52245;DHT22;55759;51.586;-1.758;2024-03-02T13:14:06;7.40;74.80
52245;DHT22;55759;51.586;-1.758;2024-03-02T13:16:37;7.20;76.10
52245;DHT22;55759;51.586;-1.758;2024-03-02T13:19:03;7.10;77.20
52245;DHT22;55759;51.586;-1.758;2024-03-02T13:21:28;6.90;77.90
52245;DHT22;55759;51.586;-1.758;2024-03-02T13:23:54;6.70;78.30
52245;DHT22;55759;51.586;-1.758;2024-03-02T13:26:20;6.50;79.50
52245;DHT22;55759;51.586;-1.758;2024-03-02T13:28:45;6.40;80.90
52245;DHT22;55759;51.586;-1.758;2024-03-02T13:31:11;6.20;81.40
52245;DHT22;55759;51.586;-1.758;2024-03-02T13:33:37;6.10;82.30
52245;DHT22;55759;51.586;-1.758;2024-03-02T13:36:03;6.00;82.60
52245;DHT22;55759;51.586;-1.758;2024-03-02T13:38:28;6.00;83.60
52245;DHT22;55759;51.586;-1.758;2024-03-02T13:40:57;6.00;83.20
52245;DHT22;55759;51.586;-1.758;2024-03-02T13:43:22;5.90;83.50
52245;DHT22;55759;51.586;-1.758;2024-03-02T13:45:49;5.70;83.60
52245;DHT22;55759;51.586;-1.758;2024-03-02T13:48:17;5.60;84.10
52245;DHT22;55759;51.586;-1.758;2024-03-02T13:50:42;5.60;84.50
52245;DHT22;55759;51.586;-1.758;2024-03-02T13:53:08;5.70;85.10
52245;DHT22;55759;51.586;-1.758;2024-03-02T13:55:34;6.00;84.80
52245;DHT22;55759;51.586;-1.758;2024-03-02T13:58:02;6.10;84.40
52245;DHT22;55759;51.586;-1.758;2024-03-02T14:00:27;6.20;84.20
52245;DHT22;55759;51.586;-1.758;2024-03-02T14:02:54;6.30;83.80
52245;DHT22;55759;51.586;-1.758;2024-03-02T14:05:22;6.50;83.30
52245;DHT22;55759;51.586;-1.758;2024-03-02T14:07:48;6.50;82.60
52245;DHT22;55759;51.586;-1.758;2024-03-02T14:10:14;6.50;82.70
52245;DHT22;55759;51.586;-1.758;2024-03-02T14:12:40;6.60;82.90
52245;DHT22;55759;51.586;-1.758;2024-03-02T14:15:06;6.70;83.30
52245;DHT22;55759;51.586;-1.758;2024-03-02T14:17:32;6.70;81.80
52245;DHT22;55759;51.586;-1.758;2024-03-02T14:19:57;6.50;81.90
52245;DHT22;55759;51.586;-1.758;2024-03-02T14:22:24;6.40;82.60
52245;DHT22;55759;51.586;-1.758;2024-03-02T14:24:53;6.40;82.40
52245;DHT22;55759;51.586;-1.758;2024-03-02T14:27:18;6.30;82.50
52245;DHT22;55759;51.586;-1.758;2024-03-02T14:29:44;6.10;83.00
52245;DHT22;55759;51.586;-1.758;2024-03-02T14:32:13;6.00;83.80
52245;DHT22;55759;51.586;-1.758;2024-03-02T14:34:38;6.00;84.50
52245;DHT22;55759;51.586;-1.758;2024-03-02T14:37:04;5.90;84.10
52245;DHT22;55759;51.586;-1.758;2024-03-02T14:39:30;5.70;84.30
52245;DHT22;55759;51.586;-1.758;2024-03-02T14:42:00;5.60;84.80
52245;DHT22;55759;51.586;-1.758;2024-03-02T14:44:25;5.50;85.70
52245;DHT22;55759;51.586;-1.758;2024-03-02T14:46:51;5.60;86.30
52245;DHT22;55759;51.586;-1.758;2024-03-02T14:49:17;5.60;86.30
52245;DHT22;55759;51.586;-1.758;2024-03-02T14:51:43;5.60;86.20
52245;DHT22;55759;51.586;-1.758;2024-03-02T14:54:09;5.50;86.30
52245;DHT22;55759;51.586;-1.758;2024-03-02T14:56:34;5.40;86.20
52245;DHT22;55759;51.586;-1.758;2024-03-02T14:59:00;5.20;86.80
52245;DHT22;55759;51.586;-1.758;2024-03-02T15:01:25;5.30;87.50
52245;DHT22;55759;51.586;-1.758;2024-03-02T15:03:51;5.40;87.50
52245;DHT22;55759;51.586;-1.758;2024-03-02T15:06:17;5.60;87.40
52245;DHT22;55759;51.586;-1.758;2024-03-02T15:08:43;5.60;87.40
52245;DHT22;55759;51.586;-1.758;2024-03-02T15:11:09;5.60;87.00
52245;DHT22;55759;51.586;-1.758;2024-03-02T15:13:34;5.50;86.80
52245;DHT22;55759;51.586;-1.758;2024-03-02T15:16:00;5.40;86.50
52245;DHT22;55759;51.586;-1.758;2024-03-02T15:18:26;5.50;86.90
52245;DHT22;55759;51.586;-1.758;2024-03-02T15:20:52;5.70;87.00
52245;DHT22;55759;51.586;-1.758;2024-03-02T15:23:19;5.70;86.40
52245;DHT22;55759;51.586;-1.758;2024-03-02T15:25:45;5.70;86.00
52245;DHT22;55759;51.586;-1.758;2024-03-02T15:28:11;5.60;85.90
52245;DHT22;55759;51.586;-1.758;2024-03-02T15:30:36;5.50;86.00
52245;DHT22;55759;51.586;-1.758;2024-03-02T15:33:02;5.40;86.30